sensor_id;sensor_type;location;lat;lon;timestamp;temperature;humidity
69324;DHT22;56470;47.350;8.718;2023-03-01T00:01:17;1.29;69.97
69324;DHT22;56470;47.350;8.718;2023-03-01T00:03:44;1.24;70.07
69324;DHT22;56470;47.350;8.718;2023-03-01T00:06:13;1.29;70.32
69324;DHT22;56470;47.350;8.718;2023-03-01T00:08:43;1.26;70.14
69324;DHT22;56470;47.350;8.718;2023-03-01T00:11:20;1.27;70.44
69324;DHT22;56470;47.350;8.718;2023-03-01T00:13:48;1.26;70.24
69324;DHT22;56470;47.350;8.718;2023-03-01T00:16:19;1.31;70.42
69324;DHT22;56470;47.350;8.718;2023-03-01T00:18:45;1.34;70.21
69324;DHT22;56470;47.350;8.718;2023-03-01T00:21:11;1.30;70.89
69324;DHT22;56470;47.350;8.718;2023-03-01T00:23:38;1.30;70.52
69324;DHT22;56470;47.350;8.718;2023-03-01T00:26:07;1.33;70.25
69324;DHT22;56470;47.350;8.718;2023-03-01T00:28:34;1.31;70.29
69324;DHT22;56470;47.350;8.718;2023-03-01T00:31:06;1.29;70.05
69324;DHT22;56470;47.350;8.718;2023-03-01T00:33:32;1.24;70.79
69324;DHT22;56470;47.350;8.718;2023-03-01T00:36:01;1.27;70.88
69324;DHT22;56470;47.350;8.718;2023-03-01T00:38:27;1.26;70.76
69324;DHT22;56470;47.350;8.718;2023-03-01T00:40:54;1.26;70.51
69324;DHT22;56470;47.350;8.718;2023-03-01T00:43:22;1.27;70.30
69324;DHT22;56470;47.350;8.718;2023-03-01T00:45:48;1.26;70.68
69324;DHT22;56470;47.350;8.718;2023-03-01T00:48:20;1.24;70.41
69324;DHT22;56470;47.350;8.718;2023-03-01T00:50:48;1.22;70.70
69324;DHT22;56470;47.350;8.718;2023-03-01T00:53:14;1.24;70.63
69324;DHT22;56470;47.350;8.718;2023-03-01T00:55:39;1.26;70.27
69324;DHT22;56470;47.350;8.718;2023-03-01T00:58:05;1.19;70.50
69324;DHT22;56470;47.350;8.718;2023-03-01T01:00:33;1.16;71.31
69324;DHT22;56470;47.350;8.718;2023-03-01T01:03:02;1.13;71.27
69324;DHT22;56470;47.350;8.718;2023-03-01T01:05:27;1.20;71.26
69324;DHT22;56470;47.350;8.718;2023-03-01T01:07:53;1.16;71.26
69324;DHT22;56470;47.350;8.718;2023-03-01T01:10:18;1.20;71.16
69324;DHT22;56470;47.350;8.718;2023-03-01T01:12:48;1.27;70.81
69324;DHT22;56470;47.350;8.718;2023-03-01T01:15:23;1.24;71.02
69324;DHT22;56470;47.350;8.718;2023-03-01T01:17:50;1.20;71.48
69324;DHT22;56470;47.350;8.718;2023-03-01T01:20:16;1.19;71.45
69324;DHT22;56470;47.350;8.718;2023-03-01T01:22:44;1.20;71.51
69324;DHT22;56470;47.350;8.718;2023-03-01T01:25:09;1.24;71.34
69324;DHT22;56470;47.350;8.718;2023-03-01T01:27:35;1.27;71.08
69324;DHT22;56470;47.350;8.718;2023-03-01T01:30:01;1.24;71.76
69324;DHT22;56470;47.350;8.718;2023-03-01T01:32:26;1.26;71.39
69324;DHT22;56470;47.350;8.718;2023-03-01T01:34:52;1.24;71.69
69324;DHT22;56470;47.350;8.718;2023-03-01T01:37:17;1.26;71.33
69324;DHT22;56470;47.350;8.718;2023-03-01T01:39:50;1.23;71.71
69324;DHT22;56470;47.350;8.718;2023-03-01T01:42:18;1.20;71.89
69324;DHT22;56470;47.350;8.718;2023-03-01T01:44:47;1.17;72.03
69324;DHT22;56470;47.350;8.718;2023-03-01T01:47:20;1.16;72.44
69324;DHT22;56470;47.350;8.718;2023-03-01T01:49:55;1.16;72.29
69324;DHT22;56470;47.350;8.718;2023-03-01T01:52:27;1.15;71.73
69324;DHT22;56470;47.350;8.718;2023-03-01T01:55:07;1.10;72.11
69324;DHT22;56470;47.350;8.718;2023-03-01T01:57:45;1.12;72.04
69324;DHT22;56470;47.350;8.718;2023-03-01T02:00:22;1.13;72.09
69324;DHT22;56470;47.350;8.718;2023-03-01T02:03:08;1.15;72.57
69324;DHT22;56470;47.350;8.718;2023-03-01T02:05:53;1.16;72.50
69324;DHT22;56470;47.350;8.718;2023-03-01T02:08:29;1.22;72.04
69324;DHT22;56470;47.350;8.718;2023-03-01T02:10:56;1.22;72.78
69324;DHT22;56470;47.350;8.718;2023-03-01T02:13:23;1.19;72.31
69324;DHT22;56470;47.350;8.718;2023-03-01T02:15:48;1.19;72.93
69324;DHT22;56470;47.350;8.718;2023-03-01T02:18:18;1.24;72.01
69324;DHT22;56470;47.350;8.718;2023-03-01T02:23:39;1.20;71.94
69324;DHT22;56470;47.350;8.718;2023-03-01T02:26:10;1.20;72.53
69324;DHT22;56470;47.350;8.718;2023-03-01T02:28:40;1.26;72.22
69324;DHT22;56470;47.350;8.718;2023-03-01T02:31:10;1.27;72.25
69324;DHT22;56470;47.350;8.718;2023-03-01T02:33:55;1.27;71.75
69324;DHT22;56470;47.350;8.718;2023-03-01T02:36:38;1.26;71.98
69324;DHT22;56470;47.350;8.718;2023-03-01T02:39:08;1.29;72.02
69324;DHT22;56470;47.350;8.718;2023-03-01T02:41:41;1.26;72.77
69324;DHT22;56470;47.350;8.718;2023-03-01T02:44:09;1.27;72.47
69324;DHT22;56470;47.350;8.718;2023-03-01T02:46:44;1.33;72.30
69324;DHT22;56470;47.350;8.718;2023-03-01T02:49:28;1.34;72.65
69324;DHT22;56470;47.350;8.718;2023-03-01T02:52:30;1.37;72.09
69324;DHT22;56470;47.350;8.718;2023-03-01T02:55:06;1.34;72.19
69324;DHT22;56470;47.350;8.718;2023-03-01T02:57:35;1.37;71.96
69324;DHT22;56470;47.350;8.718;2023-03-01T03:00:05;1.40;71.57
69324;DHT22;56470;47.350;8.718;2023-03-01T03:02:35;1.34;72.21
69324;DHT22;56470;47.350;8.718;2023-03-01T03:05:10;1.30;72.31
69324;DHT22;56470;47.350;8.718;2023-03-01T03:07:43;1.26;72.59
69324;DHT22;56470;47.350;8.718;2023-03-01T03:10:17;1.33;72.48
69324;DHT22;56470;47.350;8.718;2023-03-01T03:12:48;1.38;72.14
69324;DHT22;56470;47.350;8.718;2023-03-01T03:15:14;1.47;71.92
69324;DHT22;56470;47.350;8.718;2023-03-01T03:17:41;1.48;71.67
69324;DHT22;56470;47.350;8.718;2023-03-01T03:20:10;1.57;71.20
69324;DHT22;56470;47.350;8.718;2023-03-01T03:22:40;1.44;71.35
69324;DHT22;56470;47.350;8.718;2023-03-01T03:25:07;1.40;71.41
69324;DHT22;56470;47.350;8.718;2023-03-01T03:27:38;1.33;71.81
69324;DHT22;56470;47.350;8.718;2023-03-01T03:30:07;1.30;71.85
69324;DHT22;56470;47.350;8.718;2023-03-01T03:32:49;1.22;72.26
69324;DHT22;56470;47.350;8.718;2023-03-01T03:35:30;1.23;72.03
69324;DHT22;56470;47.350;8.718;2023-03-01T03:38:03;1.26;72.27
69324;DHT22;56470;47.350;8.718;2023-03-01T03:43:32;1.20;72.27
69324;DHT22;56470;47.350;8.718;2023-03-01T03:45:58;1.24;72.47
69324;DHT22;56470;47.350;8.718;2023-03-01T03:48:24;1.30;72.09
69324;DHT22;56470;47.350;8.718;2023-03-01T03:50:53;1.23;72.29
69324;DHT22;56470;47.350;8.718;2023-03-01T03:53:22;1.27;72.46
69324;DHT22;56470;47.350;8.718;2023-03-01T03:55:49;1.30;72.13
69324;DHT22;56470;47.350;8.718;2023-03-01T03:58:17;1.34;72.00
69324;DHT22;56470;47.350;8.718;2023-03-01T04:00:55;1.38;71.60
69324;DHT22;56470;47.350;8.718;2023-03-01T04:03:22;1.37;71.50
69324;DHT22;56470;47.350;8.718;2023-03-01T04:05:56;1.37;71.40
69324;DHT22;56470;47.350;8.718;2023-03-01T04:08:23;1.46;71.16
69324;DHT22;56470;47.350;8.718;2023-03-01T04:10:56;1.41;71.38
69324;DHT22;56470;47.350;8.718;2023-03-01T04:13:22;1.40;71.52
69324;DHT22;56470;47.350;8.718;2023-03-01T04:15:51;1.33;71.80
69324;DHT22;56470;47.350;8.718;2023-03-01T04:18:18;1.31;72.01
69324;DHT22;56470;47.350;8.718;2023-03-01T04:20:44;1.34;71.92
69324;DHT22;56470;47.350;8.718;2023-03-01T04:23:13;1.38;71.88
69324;DHT22;56470;47.350;8.718;2023-03-01T04:25:55;1.41;71.71
69324;DHT22;56470;47.350;8.718;2023-03-01T04:28:32;1.38;72.51
69324;DHT22;56470;47.350;8.718;2023-03-01T04:31:13;1.41;71.97
69324;DHT22;56470;47.350;8.718;2023-03-01T04:33:43;1.46;71.87
69324;DHT22;56470;47.350;8.718;2023-03-01T04:36:14;1.46;71.76
69324;DHT22;56470;47.350;8.718;2023-03-01T04:38:41;1.52;71.58
69324;DHT22;56470;47.350;8.718;2023-03-01T04:41:13;1.54;71.62
69324;DHT22;56470;47.350;8.718;2023-03-01T04:43:40;1.58;71.55
69324;DHT22;56470;47.350;8.718;2023-03-01T04:46:15;1.57;71.71
69324;DHT22;56470;47.350;8.718;2023-03-01T04:48:42;1.59;71.33
69324;DHT22;56470;47.350;8.718;2023-03-01T04:54:18;1.65;71.21
69324;DHT22;56470;47.350;8.718;2023-03-01T04:56:44;1.62;71.11
69324;DHT22;56470;47.350;8.718;2023-03-01T04:59:09;1.57;71.66
69324;DHT22;56470;47.350;8.718;2023-03-01T05:01:38;1.50;71.87
69324;DHT22;56470;47.350;8.718;2023-03-01T05:04:07;1.47;71.86
69324;DHT22;56470;47.350;8.718;2023-03-01T05:06:38;1.36;72.11
69324;DHT22;56470;47.350;8.718;2023-03-01T05:09:04;1.27;72.26
69324;DHT22;56470;47.350;8.718;2023-03-01T05:11:30;1.24;72.28
69324;DHT22;56470;47.350;8.718;2023-03-01T05:13:58;1.19;72.50
69324;DHT22;56470;47.350;8.718;2023-03-01T05:16:24;1.27;72.18
69324;DHT22;56470;47.350;8.718;2023-03-01T05:18:49;1.23;72.19
69324;DHT22;56470;47.350;8.718;2023-03-01T05:21:23;1.30;71.92
69324;DHT22;56470;47.350;8.718;2023-03-01T05:23:49;1.27;72.03
69324;DHT22;56470;47.350;8.718;2023-03-01T05:26:16;1.37;71.77
69324;DHT22;56470;47.350;8.718;2023-03-01T05:28:42;1.41;71.64
69324;DHT22;56470;47.350;8.718;2023-03-01T05:31:08;1.51;71.18
69324;DHT22;56470;47.350;8.718;2023-03-01T05:33:39;1.40;71.59
69324;DHT22;56470;47.350;8.718;2023-03-01T05:36:17;1.38;71.61
69324;DHT22;56470;47.350;8.718;2023-03-01T05:38:46;1.34;72.00
69324;DHT22;56470;47.350;8.718;2023-03-01T05:44:41;1.41;71.95
69324;DHT22;56470;47.350;8.718;2023-03-01T05:47:16;1.46;71.80
69324;DHT22;56470;47.350;8.718;2023-03-01T05:49:41;1.47;72.12
69324;DHT22;56470;47.350;8.718;2023-03-01T05:52:07;1.47;71.89
69324;DHT22;56470;47.350;8.718;2023-03-01T05:54:32;1.51;72.01
69324;DHT22;56470;47.350;8.718;2023-03-01T05:57:13;1.43;71.98
69324;DHT22;56470;47.350;8.718;2023-03-01T05:59:41;1.55;71.79
69324;DHT22;56470;47.350;8.718;2023-03-01T06:02:07;1.57;71.76
69324;DHT22;56470;47.350;8.718;2023-03-01T06:04:38;1.62;71.47
69324;DHT22;56470;47.350;8.718;2023-03-01T06:07:10;1.61;71.46
69324;DHT22;56470;47.350;8.718;2023-03-01T06:13:06;1.57;71.56
69324;DHT22;56470;47.350;8.718;2023-03-01T06:16:08;1.57;71.62
69324;DHT22;56470;47.350;8.718;2023-03-01T06:21:34;1.59;71.50
69324;DHT22;56470;47.350;8.718;2023-03-01T06:24:04;1.54;71.78
69324;DHT22;56470;47.350;8.718;2023-03-01T06:26:44;1.51;72.05
69324;DHT22;56470;47.350;8.718;2023-03-01T06:29:09;1.52;71.61
69324;DHT22;56470;47.350;8.718;2023-03-01T06:31:34;1.51;72.20
69324;DHT22;56470;47.350;8.718;2023-03-01T06:34:33;1.48;71.83
69324;DHT22;56470;47.350;8.718;2023-03-01T06:37:01;1.51;71.75
69324;DHT22;56470;47.350;8.718;2023-03-01T06:39:32;1.50;71.77
69324;DHT22;56470;47.350;8.718;2023-03-01T06:42:30;1.46;72.13
69324;DHT22;56470;47.350;8.718;2023-03-01T06:44:55;1.57;71.77
69324;DHT22;56470;47.350;8.718;2023-03-01T06:47:21;1.51;71.92
69324;DHT22;56470;47.350;8.718;2023-03-01T06:49:46;1.54;71.64
69324;DHT22;56470;47.350;8.718;2023-03-01T06:52:11;1.51;71.87
69324;DHT22;56470;47.350;8.718;2023-03-01T06:54:36;1.52;72.05
69324;DHT22;56470;47.350;8.718;2023-03-01T06:57:02;1.55;72.22
69324;DHT22;56470;47.350;8.718;2023-03-01T06:59:27;1.54;72.25
69324;DHT22;56470;47.350;8.718;2023-03-01T07:01:52;1.57;72.22
69324;DHT22;56470;47.350;8.718;2023-03-01T07:04:18;1.59;72.26
69324;DHT22;56470;47.350;8.718;2023-03-01T07:06:43;1.66;71.96
69324;DHT22;56470;47.350;8.718;2023-03-01T07:09:08;1.71;72.07
69324;DHT22;56470;47.350;8.718;2023-03-01T07:11:34;1.76;71.69
69324;DHT22;56470;47.350;8.718;2023-03-01T07:13:59;1.78;71.42
69324;DHT22;56470;47.350;8.718;2023-03-01T07:16:25;1.75;71.41
69324;DHT22;56470;47.350;8.718;2023-03-01T07:18:51;1.78;71.52
69324;DHT22;56470;47.350;8.718;2023-03-01T07:21:17;1.79;71.35
69324;DHT22;56470;47.350;8.718;2023-03-01T07:23:42;1.72;71.62
69324;DHT22;56470;47.350;8.718;2023-03-01T07:26:08;1.74;71.32
69324;DHT22;56470;47.350;8.718;2023-03-01T07:28:33;1.69;71.42
69324;DHT22;56470;47.350;8.718;2023-03-01T07:31:04;1.64;71.60
69324;DHT22;56470;47.350;8.718;2023-03-01T07:33:30;1.71;71.32
69324;DHT22;56470;47.350;8.718;2023-03-01T07:35:57;1.69;71.47
69324;DHT22;56470;47.350;8.718;2023-03-01T07:38:23;1.69;71.87
69324;DHT22;56470;47.350;8.718;2023-03-01T07:40:48;1.69;72.01
69324;DHT22;56470;47.350;8.718;2023-03-01T07:43:13;1.78;71.76
69324;DHT22;56470;47.350;8.718;2023-03-01T07:45:39;1.76;71.61
69324;DHT22;56470;47.350;8.718;2023-03-01T07:48:04;1.74;71.61
69324;DHT22;56470;47.350;8.718;2023-03-01T07:50:29;1.74;71.88
69324;DHT22;56470;47.350;8.718;2023-03-01T07:52:55;1.76;71.39
69324;DHT22;56470;47.350;8.718;2023-03-01T07:55:20;1.81;71.56
69324;DHT22;56470;47.350;8.718;2023-03-01T07:57:45;1.79;71.62
69324;DHT22;56470;47.350;8.718;2023-03-01T08:00:11;1.78;71.71
69324;DHT22;56470;47.350;8.718;2023-03-01T08:02:37;1.74;71.62
69324;DHT22;56470;47.350;8.718;2023-03-01T08:05:03;1.65;72.09
69324;DHT22;56470;47.350;8.718;2023-03-01T08:07:28;1.57;72.36
69324;DHT22;56470;47.350;8.718;2023-03-01T08:09:53;1.61;72.27
69324;DHT22;56470;47.350;8.718;2023-03-01T08:12:19;1.55;72.55
69324;DHT22;56470;47.350;8.718;2023-03-01T08:14:44;1.59;72.64
69324;DHT22;56470;47.350;8.718;2023-03-01T08:17:09;1.51;72.75
69324;DHT22;56470;47.350;8.718;2023-03-01T08:19:35;1.52;73.10
69324;DHT22;56470;47.350;8.718;2023-03-01T08:22:03;1.46;72.97
69324;DHT22;56470;47.350;8.718;2023-03-01T08:24:28;1.48;72.79
69324;DHT22;56470;47.350;8.718;2023-03-01T08:26:54;1.46;72.98
69324;DHT22;56470;47.350;8.718;2023-03-01T08:29:20;1.47;73.22
69324;DHT22;56470;47.350;8.718;2023-03-01T08:31:46;1.57;72.77
69324;DHT22;56470;47.350;8.718;2023-03-01T08:34:14;1.65;72.60
69324;DHT22;56470;47.350;8.718;2023-03-01T08:36:42;1.75;72.50
69324;DHT22;56470;47.350;8.718;2023-03-01T08:39:10;1.87;72.26
69324;DHT22;56470;47.350;8.718;2023-03-01T08:41:36;1.86;72.00
69324;DHT22;56470;47.350;8.718;2023-03-01T08:44:02;1.81;71.97
69324;DHT22;56470;47.350;8.718;2023-03-01T08:46:36;1.79;72.04
69324;DHT22;56470;47.350;8.718;2023-03-01T08:49:11;1.79;71.83
69324;DHT22;56470;47.350;8.718;2023-03-01T08:51:37;1.75;72.44
69324;DHT22;56470;47.350;8.718;2023-03-01T08:54:10;1.75;71.84
69324;DHT22;56470;47.350;8.718;2023-03-01T08:56:36;1.74;72.07
69324;DHT22;56470;47.350;8.718;2023-03-01T08:59:01;1.78;71.94
69324;DHT22;56470;47.350;8.718;2023-03-01T09:01:27;1.81;71.90
69324;DHT22;56470;47.350;8.718;2023-03-01T09:03:52;1.79;72.26
69324;DHT22;56470;47.350;8.718;2023-03-01T09:06:17;1.78;71.88
69324;DHT22;56470;47.350;8.718;2023-03-01T09:08:45;1.69;72.24
69324;DHT22;56470;47.350;8.718;2023-03-01T09:11:13;1.72;72.14
69324;DHT22;56470;47.350;8.718;2023-03-01T09:13:40;1.68;72.09
69324;DHT22;56470;47.350;8.718;2023-03-01T09:16:08;1.71;72.32
69324;DHT22;56470;47.350;8.718;2023-03-01T09:18:34;1.75;72.15
69324;DHT22;56470;47.350;8.718;2023-03-01T09:21:05;1.72;72.32
69324;DHT22;56470;47.350;8.718;2023-03-01T09:23:38;1.71;72.35
69324;DHT22;56470;47.350;8.718;2023-03-01T09:26:05;1.64;72.71
69324;DHT22;56470;47.350;8.718;2023-03-01T09:28:30;1.65;72.62
69324;DHT22;56470;47.350;8.718;2023-03-01T09:31:00;1.66;72.47
69324;DHT22;56470;47.350;8.718;2023-03-01T09:33:26;1.65;72.48
69324;DHT22;56470;47.350;8.718;2023-03-01T09:35:59;1.72;72.46
69324;DHT22;56470;47.350;8.718;2023-03-01T09:38:25;1.78;72.49
69324;DHT22;56470;47.350;8.718;2023-03-01T09:40:50;1.75;72.09
69324;DHT22;56470;47.350;8.718;2023-03-01T09:43:42;1.79;72.03
69324;DHT22;56470;47.350;8.718;2023-03-01T09:46:10;1.76;72.05
69324;DHT22;56470;47.350;8.718;2023-03-01T09:48:57;1.68;71.97
69324;DHT22;56470;47.350;8.718;2023-03-01T09:51:31;1.71;72.04
69324;DHT22;56470;47.350;8.718;2023-03-01T09:53:57;1.81;72.00
69324;DHT22;56470;47.350;8.718;2023-03-01T09:56:30;1.87;71.85
69324;DHT22;56470;47.350;8.718;2023-03-01T10:01:34;2.00;71.65
69324;DHT22;56470;47.350;8.718;2023-03-01T10:09:32;2.10;71.53
69324;DHT22;56470;47.350;8.718;2023-03-01T10:12:00;2.16;71.15
69324;DHT22;56470;47.350;8.718;2023-03-01T10:14:33;2.14;71.05
69324;DHT22;56470;47.350;8.718;2023-03-01T10:17:04;2.14;70.91
69324;DHT22;56470;47.350;8.718;2023-03-01T10:22:20;2.19;70.89
69324;DHT22;56470;47.350;8.718;2023-03-01T10:24:50;2.10;70.84
69324;DHT22;56470;47.350;8.718;2023-03-01T10:27:29;2.10;71.11
69324;DHT22;56470;47.350;8.718;2023-03-01T10:30:10;2.09;71.15
69324;DHT22;56470;47.350;8.718;2023-03-01T10:32:39;2.13;71.19
69324;DHT22;56470;47.350;8.718;2023-03-01T10:38:04;2.07;71.16
69324;DHT22;56470;47.350;8.718;2023-03-01T10:40:32;2.03;71.11
69324;DHT22;56470;47.350;8.718;2023-03-01T10:42:58;2.10;71.16
69324;DHT22;56470;47.350;8.718;2023-03-01T10:45:39;2.11;71.02
69324;DHT22;56470;47.350;8.718;2023-03-01T10:48:19;2.10;70.80
69324;DHT22;56470;47.350;8.718;2023-03-01T10:50:48;2.11;70.73
69324;DHT22;56470;47.350;8.718;2023-03-01T10:53:36;2.20;70.81
69324;DHT22;56470;47.350;8.718;2023-03-01T10:58:32;2.11;70.69
69324;DHT22;56470;47.350;8.718;2023-03-01T11:01:00;2.13;70.91
69324;DHT22;56470;47.350;8.718;2023-03-01T11:03:35;2.16;71.01
69324;DHT22;56470;47.350;8.718;2023-03-01T11:08:45;2.19;70.83
69324;DHT22;56470;47.350;8.718;2023-03-01T11:11:21;2.24;70.91
69324;DHT22;56470;47.350;8.718;2023-03-01T11:13:55;2.31;70.78
69324;DHT22;56470;47.350;8.718;2023-03-01T11:16:36;2.31;70.58
69324;DHT22;56470;47.350;8.718;2023-03-01T11:21:39;2.36;70.75
69324;DHT22;56470;47.350;8.718;2023-03-01T11:24:09;2.36;70.77
69324;DHT22;56470;47.350;8.718;2023-03-01T11:26:38;2.34;70.51
69324;DHT22;56470;47.350;8.718;2023-03-01T11:29:11;2.34;70.50
69324;DHT22;56470;47.350;8.718;2023-03-01T11:31:39;2.37;70.57
69324;DHT22;56470;47.350;8.718;2023-03-01T11:34:20;2.36;70.61
69324;DHT22;56470;47.350;8.718;2023-03-01T11:36:55;2.37;70.59
69324;DHT22;56470;47.350;8.718;2023-03-01T11:42:19;2.41;70.65
69324;DHT22;56470;47.350;8.718;2023-03-01T11:44:49;2.49;70.69
69324;DHT22;56470;47.350;8.718;2023-03-01T11:47:33;2.52;70.68
69324;DHT22;56470;47.350;8.718;2023-03-01T11:50:09;2.48;70.11
69324;DHT22;56470;47.350;8.718;2023-03-01T11:52:55;2.49;70.48
69324;DHT22;56470;47.350;8.718;2023-03-01T12:01:42;2.52;70.49
69324;DHT22;56470;47.350;8.718;2023-03-01T12:07:18;2.52;70.05
69324;DHT22;56470;47.350;8.718;2023-03-01T12:13:18;2.52;70.32
69324;DHT22;56470;47.350;8.718;2023-03-01T12:15:53;2.54;70.48
69324;DHT22;56470;47.350;8.718;2023-03-01T12:18:30;2.55;70.66
69324;DHT22;56470;47.350;8.718;2023-03-01T12:21:18;2.47;70.36
69324;DHT22;56470;47.350;8.718;2023-03-01T12:26:34;2.42;70.67
69324;DHT22;56470;47.350;8.718;2023-03-01T12:29:25;2.40;70.97
69324;DHT22;56470;47.350;8.718;2023-03-01T12:32:00;2.45;70.72
69324;DHT22;56470;47.350;8.718;2023-03-01T12:37:21;2.48;70.46
69324;DHT22;56470;47.350;8.718;2023-03-01T12:43:24;2.45;70.63
69324;DHT22;56470;47.350;8.718;2023-03-01T12:51:14;2.47;70.36
69324;DHT22;56470;47.350;8.718;2023-03-01T12:53:46;2.41;70.58
69324;DHT22;56470;47.350;8.718;2023-03-01T12:56:16;2.44;70.61
69324;DHT22;56470;47.350;8.718;2023-03-01T13:01:49;2.55;70.59
69324;DHT22;56470;47.350;8.718;2023-03-01T13:15:30;2.45;70.42
69324;DHT22;56470;47.350;8.718;2023-03-01T13:20:46;2.54;70.24
69324;DHT22;56470;47.350;8.718;2023-03-01T13:33:57;2.47;70.42
69324;DHT22;56470;47.350;8.718;2023-03-01T13:44:13;2.52;70.41
69324;DHT22;56470;47.350;8.718;2023-03-01T13:46:44;2.54;70.49
69324;DHT22;56470;47.350;8.718;2023-03-01T13:49:14;2.49;70.75
69324;DHT22;56470;47.350;8.718;2023-03-01T13:51:47;2.51;70.63
69324;DHT22;56470;47.350;8.718;2023-03-01T13:54:14;2.54;70.59
69324;DHT22;56470;47.350;8.718;2023-03-01T13:56:40;2.54;70.70
69324;DHT22;56470;47.350;8.718;2023-03-01T13:59:16;2.58;70.60
69324;DHT22;56470;47.350;8.718;2023-03-01T14:01:42;2.61;70.61
69324;DHT22;56470;47.350;8.718;2023-03-01T14:04:24;2.65;70.16
69324;DHT22;56470;47.350;8.718;2023-03-01T14:07:11;2.58;70.23
69324;DHT22;56470;47.350;8.718;2023-03-01T14:09:44;2.59;70.42
69324;DHT22;56470;47.350;8.718;2023-03-01T14:15:23;2.59;70.51
69324;DHT22;56470;47.350;8.718;2023-03-01T14:20:30;2.61;70.38
69324;DHT22;56470;47.350;8.718;2023-03-01T14:22:59;2.61;70.60
69324;DHT22;56470;47.350;8.718;2023-03-01T14:25:32;2.65;70.22
69324;DHT22;56470;47.350;8.718;2023-03-01T14:28:15;2.68;70.40
69324;DHT22;56470;47.350;8.718;2023-03-01T14:30:45;2.72;70.62
69324;DHT22;56470;47.350;8.718;2023-03-01T14:33:29;2.82;70.52
69324;DHT22;56470;47.350;8.718;2023-03-01T14:36:09;2.89;70.38
69324;DHT22;56470;47.350;8.718;2023-03-01T14:38:45;2.97;70.19
69324;DHT22;56470;47.350;8.718;2023-03-01T14:41:14;3.00;70.09
69324;DHT22;56470;47.350;8.718;2023-03-01T14:43:46;3.01;69.67
69324;DHT22;56470;47.350;8.718;2023-03-01T14:46:24;2.92;69.71
69324;DHT22;56470;47.350;8.718;2023-03-01T14:48:56;2.95;69.76
69324;DHT22;56470;47.350;8.718;2023-03-01T14:51:22;2.95;69.81
69324;DHT22;56470;47.350;8.718;2023-03-01T14:53:48;2.97;69.89
69324;DHT22;56470;47.350;8.718;2023-03-01T14:56:15;2.99;69.86
69324;DHT22;56470;47.350;8.718;2023-03-01T14:58:42;3.00;69.80
69324;DHT22;56470;47.350;8.718;2023-03-01T15:01:13;3.01;69.72
69324;DHT22;56470;47.350;8.718;2023-03-01T15:03:45;3.04;69.59
69324;DHT22;56470;47.350;8.718;2023-03-01T15:06:15;3.04;69.62
69324;DHT22;56470;47.350;8.718;2023-03-01T15:08:44;3.00;69.48
69324;DHT22;56470;47.350;8.718;2023-03-01T15:13:42;3.03;69.49
69324;DHT22;56470;47.350;8.718;2023-03-01T15:16:12;3.00;69.44
69324;DHT22;56470;47.350;8.718;2023-03-01T15:18:45;3.03;69.52
69324;DHT22;56470;47.350;8.718;2023-03-01T15:21:18;3.04;69.53
69324;DHT22;56470;47.350;8.718;2023-03-01T15:23:53;3.01;69.37
69324;DHT22;56470;47.350;8.718;2023-03-01T15:26:33;3.03;69.40
69324;DHT22;56470;47.350;8.718;2023-03-01T15:29:00;3.01;69.40
69324;DHT22;56470;47.350;8.718;2023-03-01T15:31:37;3.00;69.43
69324;DHT22;56470;47.350;8.718;2023-03-01T15:36:48;3.01;69.53
69324;DHT22;56470;47.350;8.718;2023-03-01T15:39:42;2.96;69.27
69324;DHT22;56470;47.350;8.718;2023-03-01T15:47:40;2.85;69.28
69324;DHT22;56470;47.350;8.718;2023-03-01T15:50:22;2.82;69.48
69324;DHT22;56470;47.350;8.718;2023-03-01T15:52:49;2.79;69.65
69324;DHT22;56470;47.350;8.718;2023-03-01T15:55:22;2.82;69.53
69324;DHT22;56470;47.350;8.718;2023-03-01T15:57:48;2.81;69.38
69324;DHT22;56470;47.350;8.718;2023-03-01T16:00:17;2.75;69.53
69324;DHT22;56470;47.350;8.718;2023-03-01T16:06:14;2.79;69.43
69324;DHT22;56470;47.350;8.718;2023-03-01T16:08:40;2.82;69.58
69324;DHT22;56470;47.350;8.718;2023-03-01T16:11:19;2.82;69.53
69324;DHT22;56470;47.350;8.718;2023-03-01T16:13:45;2.79;69.55
69324;DHT22;56470;47.350;8.718;2023-03-01T16:16:12;2.76;69.49
69324;DHT22;56470;47.350;8.718;2023-03-01T16:18:40;2.76;69.63
69324;DHT22;56470;47.350;8.718;2023-03-01T16:24:07;2.76;69.56
69324;DHT22;56470;47.350;8.718;2023-03-01T16:26:33;2.73;69.43
69324;DHT22;56470;47.350;8.718;2023-03-01T16:28:58;2.75;69.61
69324;DHT22;56470;47.350;8.718;2023-03-01T16:31:24;2.78;69.72
69324;DHT22;56470;47.350;8.718;2023-03-01T16:33:56;2.82;69.70
69324;DHT22;56470;47.350;8.718;2023-03-01T16:36:22;2.88;69.34
69324;DHT22;56470;47.350;8.718;2023-03-01T16:38:53;2.86;69.11
69324;DHT22;56470;47.350;8.718;2023-03-01T16:41:22;2.76;68.95
69324;DHT22;56470;47.350;8.718;2023-03-01T16:43:48;2.69;69.26
69324;DHT22;56470;47.350;8.718;2023-03-01T16:46:22;2.62;69.31
69324;DHT22;56470;47.350;8.718;2023-03-01T16:48:48;2.58;69.49
69324;DHT22;56470;47.350;8.718;2023-03-01T16:51:14;2.61;69.61
69324;DHT22;56470;47.350;8.718;2023-03-01T16:53:49;2.56;69.48
69324;DHT22;56470;47.350;8.718;2023-03-01T16:56:16;2.56;69.60
69324;DHT22;56470;47.350;8.718;2023-03-01T16:58:42;2.58;69.73
69324;DHT22;56470;47.350;8.718;2023-03-01T17:01:17;2.61;69.82
69324;DHT22;56470;47.350;8.718;2023-03-01T17:03:44;2.61;69.91
69324;DHT22;56470;47.350;8.718;2023-03-01T17:06:13;2.65;69.63
69324;DHT22;56470;47.350;8.718;2023-03-01T17:08:39;2.65;69.53
69324;DHT22;56470;47.350;8.718;2023-03-01T17:11:11;2.66;69.66
69324;DHT22;56470;47.350;8.718;2023-03-01T17:13:37;2.72;69.71
69324;DHT22;56470;47.350;8.718;2023-03-01T17:16:05;2.71;69.78
69324;DHT22;56470;47.350;8.718;2023-03-01T17:18:31;2.69;69.58
69324;DHT22;56470;47.350;8.718;2023-03-01T17:20:56;2.68;69.66
69324;DHT22;56470;47.350;8.718;2023-03-01T17:23:26;2.72;69.68
69324;DHT22;56470;47.350;8.718;2023-03-01T17:25:53;2.75;69.62
69324;DHT22;56470;47.350;8.718;2023-03-01T17:28:24;2.79;69.52
69324;DHT22;56470;47.350;8.718;2023-03-01T17:30:49;2.75;69.48
69324;DHT22;56470;47.350;8.718;2023-03-01T17:33:16;2.72;69.57
69324;DHT22;56470;47.350;8.718;2023-03-01T17:35:41;2.72;69.58
69324;DHT22;56470;47.350;8.718;2023-03-01T17:38:06;2.76;69.74
69324;DHT22;56470;47.350;8.718;2023-03-01T17:40:32;2.79;69.87
69324;DHT22;56470;47.350;8.718;2023-03-01T17:43:00;2.85;69.72
69324;DHT22;56470;47.350;8.718;2023-03-01T17:45:25;2.88;69.76
69324;DHT22;56470;47.350;8.718;2023-03-01T17:47:51;2.93;69.60
69324;DHT22;56470;47.350;8.718;2023-03-01T17:50:16;2.93;69.57
69324;DHT22;56470;47.350;8.718;2023-03-01T17:52:42;2.96;69.61
69324;DHT22;56470;47.350;8.718;2023-03-01T17:55:08;2.96;69.50
69324;DHT22;56470;47.350;8.718;2023-03-01T17:57:33;2.99;69.54
69324;DHT22;56470;47.350;8.718;2023-03-01T17:59:59;3.06;69.51
69324;DHT22;56470;47.350;8.718;2023-03-01T18:02:24;3.07;69.38
69324;DHT22;56470;47.350;8.718;2023-03-01T18:04:56;3.11;69.28
69324;DHT22;56470;47.350;8.718;2023-03-01T18:07:25;3.09;69.20
69324;DHT22;56470;47.350;8.718;2023-03-01T18:09:50;3.10;69.40
69324;DHT22;56470;47.350;8.718;2023-03-01T18:12:15;3.09;69.17